• Join FlightAware (Why Join?)
  • Login
  • US Flag 
02:41AM EDT


 

Airport Tracker/Info


-or-


 

Live Flight TrackerFlight Track Log ✈ SKW4682 ✈ 09-May-2013 ✈ KMSP - CYQR

Flight Track Log - Related Links

Times and Time Zones

All times are in EDT time to prevent confusion due to time zone crossing. See the SKW4682 flight status page for this flight to view local times or setup timezone preferences in your user account.

Time Position Orientation Groundspeed Altitude Reporting Facility
EDT Latitude Longitude Course Direction KTS MPH feet Rate Location/Type
10:42PM 44.9167 -93.2667 301° West 187 215 2,900  Level Minneapolis TRACON
10:43PM 44.9219 -93.2867 290° West 204 235 3,500 2,760 Climbing Minneapolis Center
10:44PM 44.9678 -93.3689 308° West 264 304 6,600 3,120 Climbing Minneapolis Center
10:45PM 45.1953 -93.5061 302° West  Level FlightAware Approximate
10:45PM 45.0247 -93.4417 318° Northwest 280 322 9,900  Level Minneapolis Center
10:46PM 45.2395 -93.6350 295° West  Level FlightAware Approximate
10:46PM 45.0878 -93.5194 319° Northwest 309 356 11,800  Level Minneapolis Center
10:47PM 45.2862 -93.7621 301° West  Level FlightAware Approximate
10:47PM 45.1550 -93.6044 318° Northwest 325 374 14,400  Level Minneapolis Center
10:48PM 45.3383 -93.8852 301° West  Level FlightAware Approximate
10:48PM 45.2286 -93.7253 311° West 340 391 16,900  Level Minneapolis Center
10:49PM 45.2903 -93.8303 310° West 347 399 18,800 1,680 Climbing Minneapolis Center
10:50PM 45.3542 -93.9375 310° West 355 409 20,400 1,560 Climbing Minneapolis Center
10:51PM 45.4189 -94.0489 310° West 364 419 22,100 1,500 Climbing Minneapolis Center
10:52PM 45.4853 -94.1600 310° West 367 422 23,500 1,260 Climbing Minneapolis Center
10:53PM 45.5522 -94.2758 310° West 375 432 24,700 1,140 Climbing Minneapolis Center
10:54PM 45.6214 -94.3944 310° West 385 443 25,900 1,020 Climbing Minneapolis Center
10:55PM 45.7042 -94.5369 310° West 388 447 27,100 1,020 Climbing Minneapolis Center
10:56PM 45.7875 -94.6844 309° West 395 455 28,200 840 Climbing Minneapolis Center
10:57PM 45.8589 -94.8083 310° West 401 461 28,900 600 Climbing Minneapolis Center
10:58PM 45.9150 -94.9092 309° West 404 465 29,500 660 Climbing Minneapolis Center
10:59PM 46.0042 -95.0653 309° West 412 474 30,300 660 Climbing Minneapolis Center
11:00PM 46.0753 -95.1917 309° West 410 472 31,000 720 Climbing Minneapolis Center
11:01PM 46.1614 -95.3450 309° West 411 473 31,900 480 Climbing Minneapolis Center
11:02PM 46.2328 -95.4750 308° West 414 476 32,000  Climbing Minneapolis Center
11:03PM 46.3067 -95.6050 309° West 418 481 32,000  Level Minneapolis Center
11:05PM 46.3800 -95.7403 308° West 426 490 32,000  Level Minneapolis Center
11:06PM 46.4603 -95.8875 308° West 434 499 32,000  Level Minneapolis Center
11:07PM 46.5353 -96.0217 309° West 429 494 32,000  Level Minneapolis Center
11:08PM 46.6086 -96.1572 308° West 428 493 32,000  Level Minneapolis Center
11:09PM 46.6814 -96.2903 309° West 422 486 32,000  Level Minneapolis Center
11:10PM 46.7508 -96.4214 308° West 412 474 32,000  Level Minneapolis Center
11:11PM 46.8064 -96.5236 308° West 405 466 32,000  Level Minneapolis Center
11:12PM 46.8872 -96.6753 308° West 397 457 32,000  Level Minneapolis Center
11:13PM 46.9706 -96.8272 309° West 400 460 32,000  Level Minneapolis Center
11:14PM 47.0397 -96.9581 308° West 406 467 32,000  Level Minneapolis Center
11:15PM 47.1064 -97.0892 307° West 403 464 32,000  Level Minneapolis Center
11:16PM 47.1889 -97.2453 308° West 403 464 32,000  Level Minneapolis Center
11:17PM 47.2583 -97.3772 308° West 408 470 32,000  Level Minneapolis Center
11:18PM 47.3283 -97.5094 308° West 410 472 32,000  Level Minneapolis Center
11:19PM 47.3964 -97.6425 307° West 407 468 32,000  Level Minneapolis Center
11:20PM 47.4644 -97.7747 307° West 406 467 32,000  Level Minneapolis Center
11:21PM 47.5436 -97.9311 307° West 405 466 32,000  Level Minneapolis Center
11:22PM 47.6047 -98.0519 307° West 402 463 32,000  Level Minneapolis Center
11:23PM 47.6725 -98.1856 307° West 404 465 32,000  Level Minneapolis Center
11:24PM 47.7394 -98.3203 306° West 406 467 32,000  Level Minneapolis Center
11:25PM 47.8072 -98.4556 307° West 408 470 32,000  Level Minneapolis Center
11:26PM 47.8897 -98.6197 307° West 412 474 32,000  Level Minneapolis Center
11:27PM 47.9578 -98.7569 307° West 412 474 32,000  Level Minneapolis Center
11:28PM 48.0269 -98.8947 307° West 414 476 32,000  Level Minneapolis Center
11:29PM 48.0944 -99.0333 306° West 414 476 32,000  Level Minneapolis Center
11:30PM 48.1622 -99.1714 306° West 414 476 32,000  Level Minneapolis Center
11:31PM 48.2283 -99.3136 305° West 415 478 32,000  Level Minneapolis Center
11:32PM 48.2947 -99.4528 306° West 412 474 32,000  Level Minneapolis Center
11:33PM 48.3622 -99.5914 306° West 412 474 32,000  Level Minneapolis Center
11:34PM 48.4286 -99.7317 306° West 412 474 32,000  Level Minneapolis Center
11:35PM 48.5075 -99.8983 306° West 409 471 32,000  Level Minneapolis Center
11:36PM 48.5739 -100.0372 306° West 408 470 32,000  Level Minneapolis Center
11:37PM 48.6394 -100.1750 306° West 406 467 32,000  Level Minneapolis Center
11:39PM 48.7042 -100.3136 305° West 405 466 32,000  Level Minneapolis Center
11:40PM 48.7678 -100.4517 305° West 404 465 32,000  Level Minneapolis Center
11:41PM 48.8331 -100.5889 306° West 402 463 32,000  Level Minneapolis Center
11:41PM 48.8833 -100.7333 298° West 390 449 32,000  Level Winnipeg Center
11:42PM 48.9500 -100.8833 304° West 400 460 32,000  Level Winnipeg Center
11:43PM 49.0000 -101.0167 300° West 400 460 32,000  Level Winnipeg Center
11:44PM 49.0667 -101.1500 307° West 400 460 32,000  Level Winnipeg Center
11:45PM 49.1333 -101.2833 307° West 390 449 32,000  Level Winnipeg Center
11:46PM 49.1833 -101.4167 300° West 400 460 32,000  Level Winnipeg Center
11:47PM 49.2667 -101.5833 308° West 390 449 32,000  Level Winnipeg Center
11:48PM 49.3167 -101.7167 300° West 390 449 32,000  Level Winnipeg Center
11:49PM 49.3833 -101.8500 308° West 390 449 32,000  Level Winnipeg Center
11:50PM 49.4500 -101.9833 308° West 390 449 32,000  Level Winnipeg Center
11:51PM 49.5167 -102.1167 308° West 390 449 32,000  Level Winnipeg Center
11:52PM 49.5667 -102.2500 300° West 390 449 32,000  Level Winnipeg Center
11:53PM 49.6167 -102.3833 300° West 390 449 32,000  Level Winnipeg Center
11:54PM 49.7000 -102.5500 308° West 390 449 32,000 -900 Level Winnipeg Center
11:55PM 49.7500 -102.7000 297° West 400 460 30,300 -1,860 Descending Winnipeg Center
11:56PM 49.8167 -102.8500 305° West 410 472 28,300 -1,920 Descending Winnipeg Center
11:57PM 49.8667 -103.0000 297° West 410 472 26,500 -1,920 Descending Winnipeg Center
11:58PM 49.9333 -103.1333 308° West 400 460 24,500 -1,920 Descending Winnipeg Center
11:59PM 49.9833 -103.2667 300° West 390 449 22,700 -1,860 Descending Winnipeg Center
12:00AM 50.0500 -103.4000 308° West 390 449 20,800 -1,980 Descending Winnipeg Center
12:01AM 50.1167 -103.5500 305° West 380 437 18,800 -1,860 Descending Winnipeg Center
12:02AM 50.1667 -103.6833 300° West 370 426 17,100 -1,860 Descending Winnipeg Center
12:03AM 50.2167 -103.8167 300° West 370 426 15,100 -1,920 Descending Winnipeg Center
12:04AM 50.2667 -103.9667 298° West 370 426 13,300 -1,800 Descending Winnipeg Center
12:05AM 50.3333 -104.1000 308° West 360 414 11,600 -1,440 Descending Winnipeg Center
12:06AM 50.3667 -104.2167 294° West 310 357 10,500 -1,200 Descending Winnipeg Center
12:07AM 50.4167 -104.3000 313° West 280 322 9,300 -1,200 Descending Winnipeg Center
12:08AM 50.4500 -104.3833 302° West 250 288 8,100 -1,140 Descending Winnipeg Center
12:09AM 50.4667 -104.4667 287° West 220 253 7,100 -1,200 Descending Winnipeg Center
12:10AM 50.5000 -104.5500 302° West 200 230 5,700 -1,080 Descending Winnipeg Center
12:11AM 50.5333 -104.6167 308° West 210 242 5,000 -360 Descending Winnipeg Center
12:12AM 50.5500 -104.7000 288° West 190 219 5,000 -60 Level Winnipeg Center
12:13AM 50.5833 -104.7500 316° Northwest 190 219 4,900 -360 Descending Winnipeg Center
12:14AM 50.5500 -104.8000 224° Southwest 180 207 4,300 -540 Descending Winnipeg Center
12:15AM 50.5000 -104.7667 157° South 170 196 3,900 -420 Descending Winnipeg Center
12:16AM 50.4667 -104.7500 162° South 140 161 3,500 -720 Descending Winnipeg Center
12:17AM 50.4333 -104.7333 162° South 130 150 2,500 -840 Descending Winnipeg Center
12:18AM 50.4167 -104.7000 128° Southeast 120 138 1,900 -600 Descending Winnipeg Center